Time;durP1;ratioP1;P1;durP2;ratioP2;P2;SDS_P1;SDS_P2;PMS_P1;PMS_P2;Temp;Humidity;BMP_temperature;BMP_pressure;BME280_temperature;BME280_humidity;BME280_pressure;Samples;Min_cycle;Max_cycle;Signal;HPM_P1;HPM_P2
2021/07/20 00:00:57;;;;;;;21.33;10.98;;;12.50;99.90;;;;;;5061458;28;19924;-59
2021/07/20 00:03:23;;;;;;;;;;;12.50;99.90;;;;;;5060968;28;20072;-62
2021/07/20 00:05:48;;;;;;;19.13;10.75;;;12.50;99.90;;;;;;5068638;28;19984;-60
2021/07/20 00:08:14;;;;;;;;;;;12.50;99.90;;;;;;5076758;28;20450;-60
2021/07/20 00:10:49;;;;;;;22.45;11.82;;;12.60;99.90;;;;;;5081167;28;20220;-60
2021/07/20 00:13:15;;;;;;;19.40;9.85;;;12.50;99.90;;;;;;5081295;28;20032;-62
2021/07/20 00:15:41;;;;;;;;;;;12.50;99.90;;;;;;5080533;28;20040;-60
2021/07/20 00:18:09;;;;;;;19.05;11.68;;;12.60;99.90;;;;;;5072541;28;19920;-61
2021/07/20 00:20:35;;;;;;;25.70;11.38;;;12.60;99.90;;;;;;5061340;28;20041;-61
2021/07/20 00:23:01;;;;;;;;;;;12.60;99.90;;;;;;5047883;28;20497;-60
2021/07/20 00:25:26;;;;;;;19.92;9.30;;;12.60;99.90;;;;;;5046209;28;20012;-60
2021/07/20 00:27:52;;;;;;;;;;;12.60;99.90;;;;;;5048070;28;20033;-58
2021/07/20 00:30:17;;;;;;;18.63;10.25;;;12.50;99.90;;;;;;5046478;28;19921;-61
2021/07/20 00:32:43;;;;;;;;;;;12.60;99.90;;;;;;5047485;28;20041;-60
2021/07/20 00:35:10;;;;;;;17.85;9.80;;;12.60;99.90;;;;;;5051927;28;20114;-61
2021/07/20 00:37:37;;;;;;;18.98;10.45;;;12.60;99.90;;;;;;5058850;28;20530;-62
2021/07/20 00:40:08;;;;;;;17.40;10.02;;;12.60;99.90;;;;;;5069434;28;20048;-61
2021/07/20 00:42:34;;;;;;;15.85;10.55;;;12.60;99.90;;;;;;5066721;28;20393;-62
2021/07/20 00:44:59;;;;;;;;;;;12.50;99.90;;;;;;5058077;28;20081;-60
2021/07/20 00:47:25;;;;;;;19.73;10.10;;;12.60;99.90;;;;;;5051493;28;19921;-61
2021/07/20 00:49:51;;;;;;;;;;;12.60;99.90;;;;;;5048156;28;20361;-62
2021/07/20 00:52:16;;;;;;;14.40;9.23;;;12.60;99.90;;;;;;5046374;28;20024;-58
2021/07/20 00:54:42;;;;;;;;;;;12.50;99.90;;;;;;5046726;28;20041;-62
2021/07/20 00:57:08;;;;;;;20.85;9.43;;;12.50;99.90;;;;;;5047271;28;19931;-60
2021/07/20 00:59:35;;;;;;;15.77;9.00;;;12.50;99.90;;;;;;5046680;28;20037;-62
2021/07/20 01:02:01;;;;;;;23.90;11.13;;;12.60;99.90;;;;;;5045304;28;20059;-57
2021/07/20 01:04:26;;;;;;;;;;;12.60;99.90;;;;;;5029279;28;20424;-60
2021/07/20 01:06:53;;;;;;;20.48;11.82;;;12.60;99.90;;;;;;5057109;28;19920;-62
2021/07/20 01:09:21;;;;;;;20.33;11.10;;;12.50;99.90;;;;;;5066623;28;20132;-59
2021/07/20 01:11:47;;;;;;;20.05;11.05;;;12.50;99.90;;;;;;5066285;28;20048;-62
2021/07/20 01:14:12;;;;;;;;;;;12.60;99.90;;;;;;5066123;28;20038;-60
2021/07/20 01:16:39;;;;;;;20.17;10.55;;;12.50;99.90;;;;;;5065953;28;20450;-56
2021/07/20 01:19:07;;;;;;;19.42;10.82;;;12.50;99.90;;;;;;5066941;28;20041;-60
2021/07/20 01:21:38;;;;;;;24.17;10.60;;;12.50;99.90;;;;;;5061510;28;20128;-60
2021/07/20 01:24:10;;;;;;;21.92;10.25;;;12.50;99.90;;;;;;5053371;28;20037;-57
2021/07/20 01:26:36;;;;;;;17.67;10.50;;;12.50;99.90;;;;;;5046184;28;20485;-60
2021/07/20 01:29:04;;;;;;;18.77;9.68;;;12.50;99.90;;;;;;5045889;28;20418;-58
2021/07/20 01:31:33;;;;;;;20.67;9.13;;;12.50;99.90;;;;;;5044622;28;20037;-59
2021/07/20 01:34:00;;;;;;;17.70;10.35;;;12.50;99.90;;;;;;5045154;28;20060;-60
2021/07/20 01:36:28;;;;;;;18.20;9.85;;;12.40;99.90;;;;;;5053816;28;20045;-59
2021/07/20 01:38:55;;;;;;;17.63;9.40;;;12.30;99.90;;;;;;5064701;28;20040;-59
2021/07/20 01:41:22;;;;;;;18.35;8.68;;;12.30;99.90;;;;;;5064871;28;20070;-59
2021/07/20 01:44:03;;;;;;;15.88;9.48;;;12.30;99.90;;;;;;5065316;28;20043;-59
2021/07/20 01:46:31;;;;;;;18.67;9.25;;;12.40;99.90;;;;;;5064180;28;20094;-59
2021/07/20 01:49:00;;;;;;;19.20;9.13;;;12.30;99.90;;;;;;5065820;28;20507;-58
2021/07/20 01:51:26;;;;;;;16.50;8.75;;;12.20;99.90;;;;;;5058944;28;20116;-59
2021/07/20 01:53:54;;;;;;;19.40;9.50;;;12.20;99.90;;;;;;5053397;28;20079;-60
2021/07/20 01:56:21;;;;;;;17.70;9.52;;;12.10;99.90;;;;;;5044556;28;20119;-58
2021/07/20 01:58:47;;;;;;;20.52;8.50;;;12.10;99.90;;;;;;5043820;28;20041;-59
2021/07/20 02:01:20;;;;;;;17.92;9.30;;;12.10;99.90;;;;;;5044979;28;20054;-59
2021/07/20 02:09:11;;;;;;;19.40;9.13;;;12.00;99.90;;;;;;5034509;28;20402;-61
2021/07/20 02:11:38;;;;;;;20.33;9.40;;;12.10;99.90;;;;;;5043691;28;20116;-64
2021/07/20 02:14:09;;;;;;;17.92;8.52;;;11.90;99.90;;;;;;5044529;28;20051;-62
2021/07/20 02:16:39;;;;;;;13.80;8.80;;;11.90;99.90;;;;;;5044795;28;20045;-65
2021/07/20 02:19:11;;;;;;;19.92;9.75;;;11.80;99.90;;;;;;5046436;28;20063;-63
2021/07/20 02:21:47;;;;;;;20.17;9.25;;;11.90;99.90;;;;;;5051220;28;20143;-63
2021/07/20 02:24:15;;;;;;;22.20;9.43;;;11.80;99.90;;;;;;5047363;28;20140;-62
2021/07/20 02:26:42;;;;;;;16.98;8.60;;;11.80;99.90;;;;;;5065260;28;20040;-62
2021/07/20 02:29:09;;;;;;;21.80;9.23;;;11.80;99.90;;;;;;5065923;28;20454;-62
2021/07/20 02:31:36;;;;;;;14.63;8.20;;;11.80;99.90;;;;;;5047860;28;20441;-63
2021/07/20 02:34:04;;;;;;;19.63;9.63;;;11.90;99.90;;;;;;5065590;28;20037;-63
2021/07/20 02:36:31;;;;;;;18.00;8.55;;;12.00;99.90;;;;;;5053849;28;20606;-63
2021/07/20 02:38:57;;;;;;;16.55;8.73;;;11.90;99.90;;;;;;5064821;28;20552;-63
2021/07/20 02:41:25;;;;;;;16.90;9.02;;;11.90;99.90;;;;;;5064345;28;20045;-63
2021/07/20 02:43:52;;;;;;;18.45;9.85;;;11.90;99.90;;;;;;5052801;28;20041;-64
2021/07/20 02:46:18;;;;;;;20.25;8.90;;;11.80;99.90;;;;;;5049911;28;20513;-63
2021/07/20 02:48:44;;;;;;;;;;;11.80;99.90;;;;;;5045918;28;20041;-63
2021/07/20 02:51:10;;;;;;;14.02;7.78;;;11.90;99.90;;;;;;5045401;28;19928;-63
2021/07/20 02:53:41;;;;;;;16.55;8.95;;;11.80;99.90;;;;;;5027164;28;20163;-62
2021/07/20 02:56:08;;;;;;;15.48;9.10;;;11.90;99.90;;;;;;5043833;28;20192;-62
2021/07/20 02:58:36;;;;;;;21.50;9.05;;;11.70;99.90;;;;;;5045973;28;20052;-62
2021/07/20 03:01:02;;;;;;;18.52;8.90;;;11.70;99.90;;;;;;5045082;28;20045;-62
2021/07/20 03:03:29;;;;;;;17.75;8.98;;;11.80;99.90;;;;;;5044925;28;20041;-63
2021/07/20 03:05:56;;;;;;;19.95;10.10;;;11.70;99.90;;;;;;5052066;28;20113;-62
2021/07/20 03:08:28;;;;;;;16.40;8.45;;;11.70;99.90;;;;;;5060369;28;20044;-62
2021/07/20 03:10:56;;;;;;;18.67;9.05;;;11.80;99.90;;;;;;5064537;28;20116;-62
2021/07/20 03:13:24;;;;;;;15.88;8.57;;;11.80;99.90;;;;;;5064208;28;20045;-63
2021/07/20 03:15:50;;;;;;;19.05;8.77;;;11.70;99.90;;;;;;5063564;28;20117;-62
2021/07/20 03:18:15;;;;;;;;;;;11.80;99.90;;;;;;5065689;28;20094;-62
2021/07/20 03:20:42;;;;;;;14.93;9.10;;;11.80;99.90;;;;;;5058428;28;20445;-62
2021/07/20 03:23:10;;;;;;;14.70;8.43;;;11.80;99.90;;;;;;5043375;28;20044;-62
2021/07/20 03:25:36;;;;;;;17.80;9.30;;;11.80;99.90;;;;;;5043600;28;20533;-62
2021/07/20 03:28:04;;;;;;;14.50;8.50;;;11.70;99.90;;;;;;5043995;28;20044;-63
2021/07/20 03:30:32;;;;;;;17.27;8.95;;;11.70;99.90;;;;;;5044398;28;20122;-63
2021/07/20 03:33:01;;;;;;;15.80;8.82;;;11.80;99.90;;;;;;5043735;28;20071;-63
2021/07/20 03:35:27;;;;;;;19.95;9.07;;;11.80;99.90;;;;;;5037117;28;20097;-64
2021/07/20 03:37:54;;;;;;;14.63;8.73;;;11.80;99.90;;;;;;5055821;28;20033;-62
2021/07/20 03:40:21;;;;;;;16.60;9.02;;;11.80;99.90;;;;;;5065248;28;20458;-62
2021/07/20 03:42:47;;;;;;;17.70;8.95;;;11.80;99.90;;;;;;5046440;28;20056;-62
2021/07/20 03:45:13;;;;;;;15.63;8.27;;;11.80;99.90;;;;;;5063245;28;20161;-62
2021/07/20 03:47:41;;;;;;;;;;;11.80;99.90;;;;;;5064583;28;20052;-62
2021/07/20 03:50:08;;;;;;;17.15;9.10;;;11.80;99.90;;;;;;5064483;28;19916;-62
2021/07/20 03:52:36;;;;;;;19.23;8.98;;;11.90;99.90;;;;;;5046669;28;20041;-63
2021/07/20 03:55:03;;;;;;;14.35;8.65;;;11.90;99.90;;;;;;5058174;28;20034;-64
2021/07/20 03:57:29;;;;;;;17.70;9.63;;;11.80;99.90;;;;;;5051616;28;20060;-62
2021/07/20 03:59:55;;;;;;;;;;;11.80;99.90;;;;;;5048373;28;20496;-62
2021/07/20 04:02:28;;;;;;;15.73;8.13;;;11.90;99.90;;;;;;5047386;28;19912;-63
2021/07/20 04:04:57;;;;;;;20.73;9.00;;;11.90;99.90;;;;;;5053781;28;20118;-63
2021/07/20 04:07:23;;;;;;;17.35;9.32;;;11.90;99.90;;;;;;5057509;28;20078;-62
2021/07/20 04:09:49;;;;;;;14.07;8.40;;;11.90;99.90;;;;;;5048316;28;20124;-63
2021/07/20 04:12:15;;;;;;;;;;;11.90;99.90;;;;;;5048301;28;20452;-62
2021/07/20 04:14:47;;;;;;;17.42;8.77;;;11.90;99.90;;;;;;5048380;28;19921;-61
2021/07/20 04:17:13;;;;;;;17.25;8.95;;;11.90;99.90;;;;;;5047668;28;20189;-63
2021/07/20 04:19:42;;;;;;;;;;;12.00;99.90;;;;;;5048545;28;20040;-62
2021/07/20 04:22:08;;;;;;;17.83;10.05;;;12.00;99.90;;;;;;5057566;28;20428;-63
2021/07/20 04:24:34;;;;;;;17.00;8.77;;;12.00;99.90;;;;;;5047204;28;20040;-63
2021/07/20 04:27:01;;;;;;;;;;;12.00;99.90;;;;;;5048299;28;20051;-62
2021/07/20 04:29:28;;;;;;;15.65;8.93;;;12.00;99.90;;;;;;5047162;28;20174;-63
2021/07/20 04:31:56;;;;;;;14.60;9.05;;;12.00;99.90;;;;;;5046013;28;20040;-62
2021/07/20 04:34:22;;;;;;;16.60;9.32;;;12.10;99.90;;;;;;5046567;28;20045;-62
2021/07/20 04:36:49;;;;;;;22.73;11.10;;;12.10;99.90;;;;;;5057583;28;20135;-63
2021/07/20 04:39:15;;;;;;;42.13;24.58;;;12.10;99.90;;;;;;5067105;28;20109;-63
2021/07/20 04:41:41;;;;;;;;;;;12.10;99.90;;;;;;5063491;28;20041;-64
2021/07/20 04:44:07;;;;;;;21.42;10.75;;;12.10;99.90;;;;;;5057622;28;20031;-63
2021/07/20 04:46:33;;;;;;;19.38;9.32;;;12.10;99.90;;;;;;5066313;28;20040;-63
2021/07/20 04:49:01;;;;;;;21.02;10.60;;;12.10;99.90;;;;;;5066755;28;20328;-63
2021/07/20 04:51:28;;;;;;;15.27;9.10;;;12.10;99.90;;;;;;5066039;28;20036;-62
2021/07/20 04:53:55;;;;;;;20.60;9.70;;;12.20;99.90;;;;;;5047859;28;20052;-63
2021/07/20 04:56:22;;;;;;;38.40;20.60;;;12.10;99.90;;;;;;5047166;28;20040;-62
2021/07/20 04:58:48;;;;;;;31.83;17.80;;;12.20;99.90;;;;;;5046621;28;20045;-62
2021/07/20 05:01:14;;;;;;;;;;;12.20;99.90;;;;;;5046058;28;20099;-61
2021/07/20 05:03:40;;;;;;;24.42;13.82;;;12.20;99.90;;;;;;5044790;28;20292;-63
2021/07/20 05:06:06;;;;;;;31.30;13.30;;;12.30;99.90;;;;;;5049892;28;20097;-63
2021/07/20 05:08:33;;;;;;;24.27;10.93;;;12.30;99.90;;;;;;5049623;28;20378;-63
2021/07/20 05:11:00;;;;;;;29.80;17.50;;;12.40;99.90;;;;;;5045937;28;20460;-61
2021/07/20 05:13:26;;;;;;;22.35;13.27;;;12.50;99.90;;;;;;5044971;28;20132;-62
2021/07/20 05:15:53;;;;;;;18.33;10.40;;;12.50;99.90;;;;;;5044986;28;20067;-63
2021/07/20 05:18:20;;;;;;;17.65;9.52;;;12.60;99.90;;;;;;5045859;28;20098;-63
2021/07/20 05:20:48;;;;;;;14.93;8.98;;;12.60;99.90;;;;;;5053390;28;20040;-61
2021/07/20 05:23:16;;;;;;;16.52;9.43;;;12.60;99.90;;;;;;5056037;28;20399;-62
2021/07/20 05:25:45;;;;;;;16.95;9.48;;;12.60;99.90;;;;;;5062710;28;20044;-63
2021/07/20 05:28:12;;;;;;;20.65;9.40;;;12.70;99.90;;;;;;5065234;28;20581;-63
2021/07/20 05:30:41;;;;;;;16.83;9.32;;;12.70;99.90;;;;;;5066648;28;20499;-63
2021/07/20 05:33:08;;;;;;;17.38;10.07;;;12.70;99.90;;;;;;5047262;28;20393;-63
2021/07/20 05:35:34;;;;;;;17.48;9.90;;;12.70;99.90;;;;;;5052557;28;20044;-62
2021/07/20 05:38:01;;;;;;;18.20;9.85;;;12.70;99.90;;;;;;5053874;28;20044;-62
2021/07/20 05:40:27;;;;;;;21.70;9.13;;;12.80;99.90;;;;;;5045573;28;20048;-62
2021/07/20 05:42:55;;;;;;;18.75;9.98;;;12.80;99.90;;;;;;5045700;28;20041;-61
2021/07/20 05:45:22;;;;;;;20.23;9.10;;;12.80;99.90;;;;;;5044991;28;20123;-60
2021/07/20 05:47:49;;;;;;;15.27;8.85;;;12.90;99.90;;;;;;5045995;28;20045;-61
2021/07/20 05:50:16;;;;;;;19.05;9.18;;;13.00;99.90;;;;;;5045414;28;20045;-61
2021/07/20 05:52:45;;;;;;;18.85;7.97;;;13.00;99.90;;;;;;5027275;28;20209;-63
2021/07/20 05:55:13;;;;;;;16.20;8.98;;;13.10;99.90;;;;;;5044654;28;20045;-62
2021/07/20 05:57:40;;;;;;;16.95;8.80;;;13.10;99.90;;;;;;5045586;28;20214;-63
2021/07/20 06:00:08;;;;;;;15.05;9.45;;;13.10;99.90;;;;;;5043273;28;20045;-63
2021/07/20 06:02:36;;;;;;;16.55;9.00;;;13.10;99.90;;;;;;5041895;28;20124;-60
2021/07/20 06:05:03;;;;;;;16.13;8.52;;;13.20;99.90;;;;;;5048628;28;20041;-61
2021/07/20 06:07:30;;;;;;;15.32;8.85;;;13.20;99.90;;;;;;5052941;28;20120;-63
2021/07/20 06:09:56;;;;;;;16.42;8.20;;;13.20;99.90;;;;;;5053274;28;20049;-63
2021/07/20 06:12:21;;;;;;;;;;;13.20;99.90;;;;;;5049964;28;20047;-64
2021/07/20 06:14:47;;;;;;;17.10;8.82;;;13.30;99.90;;;;;;5060633;28;19916;-63
2021/07/20 06:17:13;;;;;;;;;;;13.30;99.90;;;;;;5055744;28;20093;-63
2021/07/20 06:19:39;;;;;;;16.85;9.70;;;13.40;99.90;;;;;;5055498;28;19916;-62
2021/07/20 06:22:08;;;;;;;16.10;10.02;;;13.40;99.90;;;;;;5048134;28;20438;-62
2021/07/20 06:24:42;;;;;;;19.02;9.35;;;13.40;99.90;;;;;;5055530;28;20404;-63
2021/07/20 06:27:13;;;;;;;21.58;8.73;;;13.50;99.90;;;;;;5053514;28;20044;-62
2021/07/20 06:29:39;;;;;;;15.68;8.13;;;13.50;99.90;;;;;;5043998;28;20127;-61
2021/07/20 06:32:06;;;;;;;16.60;9.32;;;13.60;99.90;;;;;;5053615;28;20044;-64
2021/07/20 06:34:36;;;;;;;14.18;8.48;;;13.60;99.90;;;;;;5044683;28;20051;-58
2021/07/20 06:37:02;;;;;;;18.85;8.68;;;13.70;99.90;;;;;;5053862;28;20042;-60
2021/07/20 06:39:28;;;;;;;18.92;9.48;;;13.70;99.90;;;;;;5051148;28;20075;-62
2021/07/20 06:41:56;;;;;;;15.63;8.77;;;13.70;99.90;;;;;;5056079;28;20994;-63
2021/07/20 06:44:22;;;;;;;14.80;8.38;;;13.70;99.90;;;;;;5064628;28;20044;-62
2021/07/20 06:46:49;;;;;;;16.40;9.55;;;13.70;99.90;;;;;;5064594;28;20074;-62
2021/07/20 06:49:17;;;;;;;19.25;8.27;;;13.70;99.90;;;;;;5065356;28;20036;-62
2021/07/20 06:51:43;;;;;;;19.05;9.25;;;13.80;99.90;;;;;;5064494;28;20040;-63
2021/07/20 06:54:08;;;;;;;;;;;13.80;99.90;;;;;;5065024;28;20032;-64
2021/07/20 06:56:38;;;;;;;12.73;7.57;;;13.90;99.90;;;;;;5062290;28;19924;-63
2021/07/20 06:59:05;;;;;;;19.08;8.90;;;13.90;99.90;;;;;;5045260;28;20499;-58
2021/07/20 07:01:32;;;;;;;18.70;9.13;;;13.90;99.90;;;;;;5044032;28;20068;-62
2021/07/20 07:04:13;;;;;;;18.30;8.90;;;13.90;99.90;;;;;;5045293;28;20057;-61
2021/07/20 07:06:47;;;;;;;19.33;9.00;;;13.90;99.90;;;;;;5053808;28;20048;-62
2021/07/20 07:09:13;;;;;;;19.88;9.77;;;14.00;99.90;;;;;;5065627;28;20059;-62
2021/07/20 07:11:40;;;;;;;17.58;8.95;;;13.90;99.90;;;;;;5064968;28;20041;-64
2021/07/20 07:14:07;;;;;;;17.35;8.68;;;14.00;99.90;;;;;;5064757;28;20155;-62
2021/07/20 07:16:32;;;;;;;19.27;8.35;;;14.00;99.90;;;;;;5063644;28;20051;-62
2021/07/20 07:18:58;;;;;;;;;;;14.10;99.90;;;;;;5065453;28;20044;-63
2021/07/20 07:21:26;;;;;;;19.30;8.13;;;14.10;99.90;;;;;;5051810;28;20009;-64
2021/07/20 07:23:52;;;;;;;19.25;8.18;;;14.20;99.90;;;;;;5055805;28;20045;-63
2021/07/20 07:26:20;;;;;;;20.38;8.77;;;14.10;99.90;;;;;;5062844;28;20744;-63
2021/07/20 07:28:49;;;;;;;19.88;7.50;;;14.10;99.90;;;;;;5068038;28;20427;-63
2021/07/20 07:31:15;;;;;;;17.75;9.93;;;14.10;99.90;;;;;;5045197;28;20061;-62
2021/07/20 07:33:42;;;;;;;15.05;7.03;;;14.00;99.90;;;;;;5053947;28;20045;-61
2021/07/20 07:36:09;;;;;;;;;;;14.10;99.90;;;;;;5053933;28;20139;-62
2021/07/20 07:38:40;;;;;;;16.63;7.95;;;14.20;99.90;;;;;;5062957;28;19923;-63
2021/07/20 07:41:06;;;;;;;14.95;6.85;;;14.10;99.90;;;;;;5063113;28;20040;-63
2021/07/20 07:43:34;;;;;;;;;;;14.10;99.90;;;;;;5060232;28;20611;-62
2021/07/20 07:46:01;;;;;;;16.00;7.40;;;14.10;99.90;;;;;;5058851;28;19924;-63
2021/07/20 07:48:28;;;;;;;14.32;7.82;;;14.10;99.90;;;;;;5055947;28;20533;-65
2021/07/20 07:50:57;;;;;;;13.75;7.50;;;14.10;99.90;;;;;;5056474;28;20033;-63
2021/07/20 07:53:24;;;;;;;14.27;8.30;;;14.20;99.90;;;;;;5058798;28;20067;-63
2021/07/20 07:55:51;;;;;;;18.90;8.02;;;14.20;99.90;;;;;;5061633;28;20044;-65
2021/07/20 07:58:17;;;;;;;15.30;7.30;;;14.30;99.90;;;;;;5054994;28;20029;-63
2021/07/20 08:00:45;;;;;;;14.80;7.53;;;14.20;99.90;;;;;;5049262;28;20098;-65
2021/07/20 08:03:15;;;;;;;14.93;8.05;;;14.30;99.90;;;;;;5048370;28;20098;-64
2021/07/20 08:05:44;;;;;;;14.57;8.05;;;14.30;99.90;;;;;;5057632;28;20048;-66
2021/07/20 08:08:11;;;;;;;14.48;8.13;;;14.40;99.90;;;;;;5062550;28;20045;-63
2021/07/20 08:10:37;;;;;;;16.88;8.27;;;14.60;99.90;;;;;;5065581;28;20548;-64
2021/07/20 08:13:05;;;;;;;;;;;14.90;99.90;;;;;;5056507;28;20124;-64
2021/07/20 08:15:31;;;;;;;20.10;8.05;;;14.80;99.90;;;;;;5048005;28;19916;-64
2021/07/20 08:17:59;;;;;;;17.25;8.10;;;14.90;99.70;;;;;;5048251;28;20111;-63
2021/07/20 08:20:26;;;;;;;13.60;7.53;;;15.10;99.80;;;;;;5053344;28;20496;-63
2021/07/20 08:22:52;;;;;;;14.23;7.80;;;15.50;99.90;;;;;;5052750;28;20562;-63
2021/07/20 08:25:25;;;;;;;;;;;15.60;99.40;;;;;;5047039;28;20044;-64
2021/07/20 08:28:12;;;;;;;18.35;8.07;;;16.00;99.10;;;;;;5048145;28;19972;-64
2021/07/20 08:30:42;;;;;;;13.68;6.63;;;16.00;98.40;;;;;;5046091;28;20095;-63
2021/07/20 08:33:29;;;;;;;13.07;7.68;;;16.00;99.10;;;;;;5047358;28;20041;-65
2021/07/20 08:35:59;;;;;;;15.50;7.60;;;16.20;99.80;;;;;;5055612;28;20719;-64
2021/07/20 08:38:25;;;;;;;11.88;7.30;;;16.10;98.80;;;;;;5055805;28;20072;-63
2021/07/20 08:40:55;;;;;;;;;;;16.00;97.10;;;;;;5047616;28;20509;-63
2021/07/20 08:43:57;;;;;;;10.55;6.40;;;16.30;98.60;;;;;;5028776;28;19916;-64
2021/07/20 08:46:38;;;;;;;20.40;9.80;;;16.80;98.90;;;;;;5046493;28;20096;-64
2021/07/20 08:49:44;;;;;;;16.38;7.47;;;16.60;97.00;;;;;;5047803;28;20044;-63
2021/07/20 08:52:20;;;;;;;16.88;7.85;;;16.40;98.10;;;;;;5047297;28;20033;-63
2021/07/20 08:54:54;;;;;;;16.13;8.05;;;16.30;98.80;;;;;;5029831;28;20538;-65
2021/07/20 08:57:46;;;;;;;14.95;7.22;;;16.30;99.90;;;;;;5047727;28;20052;-63
2021/07/20 09:00:25;;;;;;;14.48;7.40;;;16.60;99.50;;;;;;5033190;28;20132;-64
2021/07/20 09:02:58;;;;;;;18.05;8.15;;;16.40;97.80;;;;;;5047387;28;20080;-65
2021/07/20 09:05:45;;;;;;;14.95;7.57;;;16.00;98.60;;;;;;5054770;28;20414;-63
2021/07/20 09:08:18;;;;;;;12.38;6.72;;;15.90;99.90;;;;;;5060262;28;20048;-64
2021/07/20 09:10:52;;;;;;;15.00;7.43;;;16.00;99.90;;;;;;5067628;28;20072;-63
2021/07/20 09:13:25;;;;;;;19.95;9.05;;;15.90;99.90;;;;;;5066205;28;20045;-64
2021/07/20 09:15:59;;;;;;;15.70;7.57;;;15.90;99.90;;;;;;5066341;28;20478;-64
2021/07/20 09:18:57;;;;;;;17.67;8.05;;;15.70;99.90;;;;;;5066796;28;20782;-64
2021/07/20 09:21:23;;;;;;;13.60;7.88;;;15.70;99.90;;;;;;5034662;28;20107;-65
2021/07/20 09:24:09;;;;;;;13.68;7.60;;;15.90;99.80;;;;;;5056015;28;20530;-61
2021/07/20 09:26:45;;;;;;;17.90;8.25;;;16.20;99.50;;;;;;5066145;28;20041;-63
2021/07/20 09:29:15;;;;;;;19.75;8.43;;;16.30;99.30;;;;;;5066511;28;20177;-63
2021/07/20 09:31:47;;;;;;;20.70;8.77;;;16.20;98.90;;;;;;5064987;28;20044;-63
2021/07/20 09:34:40;;;;;;;15.38;7.82;;;16.00;99.90;;;;;;5064660;28;20044;-64
2021/07/20 09:37:11;;;;;;;16.55;8.60;;;16.00;99.70;;;;;;5060604;28;20459;-63
2021/07/20 09:40:10;;;;;;;16.52;7.72;;;16.00;99.60;;;;;;5066947;28;20067;-65
2021/07/20 09:42:53;;;;;;;15.38;7.95;;;15.90;99.70;;;;;;5066376;28;20048;-63
2021/07/20 09:45:30;;;;;;;13.93;7.25;;;15.90;98.50;;;;;;5047519;28;20079;-63
2021/07/20 09:48:22;;;;;;;14.40;7.88;;;15.90;99.50;;;;;;5065796;28;20051;-63
2021/07/20 09:51:10;;;;;;;13.57;7.80;;;15.90;99.80;;;;;;5066001;28;20115;-64
2021/07/20 09:54:15;;;;;;;15.00;7.43;;;15.90;99.90;;;;;;5064384;28;20149;-65
2021/07/20 09:57:30;;;;;;;14.60;7.55;;;16.30;99.10;;;;;;5062392;28;20577;-65
2021/07/20 10:00:09;;;;;;;14.80;7.28;;;16.60;99.90;;;;;;5030654;28;20556;-63
2021/07/20 10:02:42;;;;;;;12.90;6.68;;;16.60;98.70;;;;;;5045180;28;20053;-64
2021/07/20 10:05:12;;;;;;;18.50;6.90;;;16.70;99.00;;;;;;5049766;28;20068;-64
2021/07/20 10:07:41;;;;;;;14.48;8.07;;;16.50;98.00;;;;;;5057111;28;20736;-63
2021/07/20 10:10:18;;;;;;;15.20;8.32;;;16.20;97.50;;;;;;5065647;28;20041;-64
2021/07/20 10:13:03;;;;;;;19.15;8.38;;;16.00;98.30;;;;;;5065188;28;20041;-63
2021/07/20 10:16:08;;;;;;;13.88;7.60;;;15.90;99.10;;;;;;5064503;28;20048;-65
2021/07/20 10:19:03;;;;;;;12.15;7.22;;;15.90;99.10;;;;;;5029296;28;20052;-63
2021/07/20 10:21:31;;;;;;;14.43;7.15;;;16.00;99.90;;;;;;5057487;28;20025;-63
2021/07/20 10:24:02;;;;;;;13.50;7.15;;;16.10;99.80;;;;;;5053206;28;20037;-63
2021/07/20 10:26:31;;;;;;;14.50;7.70;;;16.30;99.90;;;;;;5045238;28;20049;-63
2021/07/20 10:29:14;;;;;;;13.43;7.25;;;16.50;97.60;;;;;;5027755;28;20040;-63
2021/07/20 10:31:52;;;;;;;12.85;6.43;;;16.40;95.70;;;;;;5045312;28;20033;-64
2021/07/20 10:34:23;;;;;;;12.23;5.68;;;16.50;97.10;;;;;;5046805;28;20052;-63
2021/07/20 10:36:56;;;;;;;10.82;6.47;;;16.60;97.20;;;;;;5063882;28;20113;-64
2021/07/20 10:39:26;;;;;;;14.63;7.82;;;16.60;98.00;;;;;;5045822;28;20049;-65
2021/07/20 10:42:17;;;;;;;16.25;7.43;;;16.40;98.10;;;;;;5044983;28;20040;-66
2021/07/20 10:45:00;;;;;;;13.13;6.05;;;16.30;99.90;;;;;;5044407;28;20044;-66
2021/07/20 10:47:34;;;;;;;16.63;7.05;;;16.30;99.90;;;;;;5044956;28;20045;-65
2021/07/20 10:50:04;;;;;;;12.90;6.90;;;16.20;99.90;;;;;;5045500;28;20072;-65
2021/07/20 10:52:36;;;;;;;11.45;7.38;;;16.20;99.90;;;;;;5028029;28;20041;-65
2021/07/20 10:55:15;;;;;;;13.50;7.53;;;16.30;99.80;;;;;;5047105;28;20033;-65
2021/07/20 10:57:56;;;;;;;14.55;7.50;;;16.50;99.40;;;;;;5044525;28;20075;-63
2021/07/20 11:00:25;;;;;;;14.82;7.75;;;16.80;99.30;;;;;;5044444;28;20040;-64
2021/07/20 11:03:05;;;;;;;15.52;7.47;;;17.00;98.50;;;;;;5044197;28;20079;-64
2021/07/20 11:05:34;;;;;;;14.93;7.10;;;17.10;97.40;;;;;;5052096;28;20411;-65
2021/07/20 11:08:03;;;;;;;18.02;7.13;;;17.10;98.20;;;;;;5057319;28;20134;-65
2021/07/20 11:10:39;;;;;;;14.55;6.07;;;16.90;97.40;;;;;;5065845;28;20178;-64
2021/07/20 11:13:10;;;;;;;;;;;16.90;99.90;;;;;;5064980;28;20102;-64
2021/07/20 11:15:38;;;;;;;14.13;8.10;;;16.90;97.40;;;;;;5064915;28;19994;-63
2021/07/20 11:18:12;;;;;;;14.95;7.15;;;16.80;98.50;;;;;;5065017;28;20040;-65
2021/07/20 11:20:41;;;;;;;15.10;7.03;;;16.80;99.30;;;;;;5058470;28;20710;-65
2021/07/20 11:23:08;;;;;;;11.40;6.35;;;16.80;98.50;;;;;;5044464;28;20048;-64
2021/07/20 11:25:36;;;;;;;15.73;7.15;;;16.90;98.30;;;;;;5045590;28;20037;-64
2021/07/20 11:28:02;;;;;;;12.15;6.32;;;16.90;99.10;;;;;;5062055;28;20040;-63
2021/07/20 11:30:34;;;;;;;12.10;7.22;;;17.20;99.10;;;;;;5053067;28;20047;-65
2021/07/20 11:33:14;;;;;;;15.85;7.43;;;17.50;98.90;;;;;;5043463;28;20048;-64
2021/07/20 11:35:42;;;;;;;10.18;6.10;;;17.70;97.30;;;;;;5044497;28;20072;-65
2021/07/20 11:38:12;;;;;;;19.33;7.18;;;17.90;97.50;;;;;;5057420;28;20041;-65
2021/07/20 11:40:59;;;;;;;11.60;6.53;;;18.00;98.00;;;;;;5047152;28;20044;-65
2021/07/20 11:43:38;;;;;;;14.65;6.82;;;18.00;95.80;;;;;;5063307;28;20416;-63
2021/07/20 11:46:10;;;;;;;13.95;6.80;;;18.00;96.90;;;;;;5064363;28;20052;-63
2021/07/20 11:48:48;;;;;;;12.70;6.93;;;18.10;97.10;;;;;;5066314;28;20048;-64
2021/07/20 11:51:22;;;;;;;12.35;7.20;;;18.00;96.50;;;;;;5064376;28;20044;-63
2021/07/20 11:54:05;;;;;;;17.55;8.38;;;17.80;95.30;;;;;;5063996;28;20048;-65
2021/07/20 11:56:35;;;;;;;16.27;6.78;;;18.00;96.40;;;;;;5062875;28;20087;-65
2021/07/20 11:59:22;;;;;;;14.05;6.45;;;18.20;97.10;;;;;;5044612;28;20090;-65
2021/07/20 12:02:25;;;;;;;15.00;6.45;;;18.30;98.30;;;;;;5043959;28;20564;-65
2021/07/20 12:05:09;;;;;;;10.68;5.72;;;18.20;95.70;;;;;;5030934;28;20044;-64
2021/07/20 12:07:45;;;;;;;13.02;5.53;;;18.10;96.50;;;;;;5044882;28;20051;-66
2021/07/20 12:10:19;;;;;;;11.57;6.45;;;18.10;95.30;;;;;;5046807;28;20112;-65
2021/07/20 12:12:45;;;;;;;13.52;6.38;;;18.00;97.60;;;;;;5050741;28;20041;-63
2021/07/20 12:15:11;;;;;;;;;;;17.80;96.60;;;;;;5067538;28;20685;-62
2021/07/20 12:17:40;;;;;;;11.80;6.27;;;17.90;96.20;;;;;;5068332;28;20461;-64
2021/07/20 12:20:08;;;;;;;10.23;6.28;;;18.20;95.80;;;;;;5066848;28;20044;-63
2021/07/20 12:22:33;;;;;;;10.40;6.03;;;18.20;94.60;;;;;;5048041;28;20041;-65
2021/07/20 12:25:06;;;;;;;;;;;18.00;95.10;;;;;;5047758;28;20048;-65
2021/07/20 12:27:34;;;;;;;13.23;5.95;;;18.00;96.10;;;;;;5049796;28;20012;-65
2021/07/20 12:30:00;;;;;;;12.00;6.75;;;18.10;96.30;;;;;;5058047;28;20028;-64
2021/07/20 12:32:30;;;;;;;;;;;18.30;96.50;;;;;;5067884;28;20151;-63
2021/07/20 12:34:57;;;;;;;10.98;6.05;;;18.50;95.70;;;;;;5047093;28;19916;-64
2021/07/20 12:37:24;;;;;;;8.80;5.70;;;18.60;94.50;;;;;;5047933;28;20041;-65
2021/07/20 12:39:54;;;;;;;12.82;5.78;;;18.70;93.90;;;;;;5048048;28;20048;-64
2021/07/20 12:42:21;;;;;;;10.95;6.55;;;18.70;94.30;;;;;;5047554;28;20032;-64
2021/07/20 12:45:13;;;;;;;12.90;6.95;;;18.40;93.90;;;;;;5047029;28;20041;-65
2021/07/20 12:47:39;;;;;;;12.90;6.22;;;17.90;94.60;;;;;;5047617;28;20063;-64
2021/07/20 12:50:07;;;;;;;12.65;6.03;;;17.80;95.50;;;;;;5047540;28;20041;-64
2021/07/20 12:52:44;;;;;;;14.98;6.50;;;18.10;97.00;;;;;;5047210;28;20116;-64
2021/07/20 12:55:15;;;;;;;13.38;6.78;;;18.40;96.20;;;;;;5046841;28;20045;-65
2021/07/20 12:57:50;;;;;;;11.15;6.53;;;18.30;94.30;;;;;;5059418;28;20511;-65
2021/07/20 13:00:24;;;;;;;14.52;7.18;;;18.00;94.90;;;;;;5067084;28;20041;-65
2021/07/20 13:02:51;;;;;;;17.05;7.05;;;18.20;95.80;;;;;;5066808;28;20068;-64
2021/07/20 13:05:19;;;;;;;11.73;6.90;;;18.20;96.40;;;;;;5056532;28;20041;-64
2021/07/20 13:07:47;;;;;;;18.63;7.82;;;18.10;94.90;;;;;;5064564;28;20052;-64